Time;durP1;ratioP1;P1;durP2;ratioP2;P2;SDS_P1;SDS_P2;PMS_P1;PMS_P2;Temp;Humidity;BMP_temperature;BMP_pressure;BME280_temperature;BME280_humidity;BME280_pressure;Samples;Min_cycle;Max_cycle;Signal;HPM_P1;HPM_P2
2023/07/01 00:01:04;;;;;;;1.43;1.20;;;;;;;14.04;86.63;99553.59;5033513;28;20302;-60
2023/07/01 00:03:34;;;;;;;3.60;1.40;;;;;;;13.96;88.18;99525.03;5041001;28;20819;-60
2023/07/01 00:06:07;;;;;;;4.43;1.30;;;;;;;14.23;88.42;99544.03;5034529;28;20378;-59
2023/07/01 00:08:37;;;;;;;7.30;2.47;;;;;;;14.37;88.71;99556.56;5035393;28;20403;-59
2023/07/01 00:11:08;;;;;;;3.17;1.57;;;;;;;14.47;88.31;99557.00;5044893;28;20329;-59
2023/07/01 00:13:39;;;;;;;1.77;1.30;;;;;;;14.56;87.78;99556.66;5035457;28;20333;-59
2023/07/01 00:16:13;;;;;;;3.13;1.53;;;;;;;14.61;86.33;99548.56;5045870;28;20566;-58
2023/07/01 00:18:45;;;;;;;4.93;1.97;;;;;;;14.57;86.55;99553.09;5035356;28;20609;-57
2023/07/01 00:21:18;;;;;;;1.57;1.10;;;;;;;14.66;86.19;99552.69;5043118;28;20382;-60
2023/07/01 00:23:48;;;;;;;4.43;1.10;;;;;;;14.54;85.92;99568.16;5034184;28;20318;-59
2023/07/01 00:26:19;;;;;;;4.13;1.60;;;;;;;14.38;85.37;99562.69;5045332;28;20279;-61
2023/07/01 00:28:49;;;;;;;4.10;1.40;;;;;;;14.31;86.84;99569.13;5034757;28;20279;-59
2023/07/01 00:31:20;;;;;;;10.73;1.83;;;;;;;14.22;88.92;99563.31;5024891;28;20370;-62
2023/07/01 00:33:50;;;;;;;6.67;2.10;;;;;;;13.85;90.78;99564.00;5014838;28;20302;-59
2023/07/01 00:36:23;;;;;;;6.20;2.00;;;;;;;13.62;93.02;99575.44;5036618;28;20302;-59
2023/07/01 00:38:53;;;;;;;13.77;2.27;;;;;;;13.47;92.80;99573.44;5035051;28;20712;-60
2023/07/01 00:41:27;;;;;;;5.10;1.97;;;;;;;13.37;94.51;99579.03;5038088;28;21511;-58
2023/07/01 00:43:58;;;;;;;3.53;1.77;;;;;;;13.24;94.14;99535.78;5028315;28;20344;-59
2023/07/01 00:46:28;;;;;;;3.88;1.73;;;;;;;13.31;94.80;99589.78;5039512;28;20282;-62
2023/07/01 00:49:00;;;;;;;3.95;1.75;;;;;;;13.11;95.20;99581.78;5028613;28;20056;-64
2023/07/01 00:51:32;;;;;;;5.50;1.50;;;;;;;13.00;95.29;99589.19;5039943;28;20147;-60
2023/07/01 00:54:03;;;;;;;5.30;1.98;;;;;;;12.61;96.84;99560.91;5029102;28;20067;-60
2023/07/01 00:56:34;;;;;;;5.60;2.10;;;;;;;12.64;97.47;99581.75;5039859;28;20051;-64
2023/07/01 00:59:05;;;;;;;7.72;1.70;;;;;;;12.57;97.82;99580.25;5014542;28;20053;-64
2023/07/01 01:01:39;;;;;;;4.43;1.80;;;;;;;12.64;99.12;99584.38;5018331;28;20055;-59
2023/07/01 01:04:23;;;;;;;5.18;1.20;;;;;;;12.66;98.01;99595.66;5030273;28;20063;-61
2023/07/01 01:07:07;;;;;;;5.80;2.05;;;;;;;12.56;97.85;99595.13;5019744;28;20132;-63
2023/07/01 01:09:43;;;;;;;4.45;1.50;;;;;;;12.49;98.47;99589.22;5020135;28;20172;-61
2023/07/01 01:12:15;;;;;;;5.45;1.40;;;;;;;12.39;97.97;99603.56;5030204;28;20045;-61
2023/07/01 01:14:46;;;;;;;5.53;1.75;;;;;;;12.28;98.81;99621.41;5020353;28;20109;-61
2023/07/01 01:17:18;;;;;;;3.60;1.20;;;;;;;11.97;98.19;99564.81;5029924;28;20136;-62
2023/07/01 01:19:55;;;;;;;3.20;1.38;;;;;;;12.25;98.35;99608.41;5019225;28;20143;-61
2023/07/01 01:22:32;;;;;;;7.15;1.73;;;;;;;12.27;97.03;99619.69;5029490;28;20083;-61
2023/07/01 01:25:18;;;;;;;3.83;1.20;;;;;;;12.32;97.14;99617.78;5022399;28;20151;-59
2023/07/01 01:27:51;;;;;;;3.03;1.25;;;;;;;12.40;96.54;99615.75;5027884;28;20609;-63
2023/07/01 01:30:23;;;;;;;3.47;1.30;;;;;;;12.29;96.91;99607.41;5037987;28;20048;-62
2023/07/01 01:32:54;;;;;;;3.05;1.20;;;;;;;12.39;96.73;99623.69;5029532;28;20048;-60
2023/07/01 01:35:24;;;;;;;6.32;1.50;;;;;;;12.38;97.57;99617.59;5038255;28;20091;-60
2023/07/01 01:37:59;;;;;;;3.80;1.05;;;;;;;12.22;96.90;99571.84;5028790;28;20045;-63
2023/07/01 01:40:35;;;;;;;2.33;0.90;;;;;;;12.29;95.76;99599.56;5037912;28;20052;-63
2023/07/01 01:43:13;;;;;;;4.53;1.40;;;;;;;12.34;98.02;99615.97;5028995;28;20052;-60
2023/07/01 01:45:45;;;;;;;2.08;0.90;;;;;;;12.29;97.18;99607.41;5027720;28;20067;-61
2023/07/01 01:48:16;;;;;;;6.10;0.80;;;;;;;12.42;97.90;99608.69;5039295;28;20132;-64
2023/07/01 01:50:49;;;;;;;2.42;0.90;;;;;;;12.48;95.48;99618.97;5027897;28;20083;-62
2023/07/01 01:53:21;;;;;;;2.25;0.88;;;;;;;12.38;94.39;99601.88;5038003;28;20168;-60
2023/07/01 01:55:52;;;;;;;1.95;0.70;;;;;;;12.43;95.10;99615.66;5028728;28;20064;-62
2023/07/01 01:58:25;;;;;;;2.15;0.70;;;;;;;12.13;96.12;99580.88;5037882;28;20117;-60
2023/07/01 02:00:56;;;;;;;6.70;0.88;;;;;;;12.33;96.30;99624.75;5027305;28;20173;-61
2023/07/01 02:03:26;;;;;;;5.82;0.90;;;;;;;12.36;96.50;99622.00;5038489;28;20517;-62
2023/07/01 02:05:57;;;;;;;3.60;0.90;;;;;;;12.29;98.20;99581.22;5027726;28;20064;-63
2023/07/01 02:08:28;;;;;;;5.32;1.15;;;;;;;12.27;98.76;99588.25;5014427;28;20140;-59
2023/07/01 02:10:59;;;;;;;1.88;1.10;;;;;;;12.45;97.95;99621.69;5018246;28;20767;-62
2023/07/01 02:13:31;;;;;;;1.55;0.85;;;;;;;12.60;98.04;99627.31;5029089;28;20049;-63
2023/07/01 02:16:02;;;;;;;2.42;0.90;;;;;;;12.68;96.58;99620.03;5027770;28;20670;-61
2023/07/01 02:18:32;;;;;;;2.92;0.80;;;;;;;12.67;96.28;99618.31;5038504;28;20052;-63
2023/07/01 02:21:04;;;;;;;3.50;0.90;;;;;;;12.55;94.89;99597.78;5027225;28;20057;-59
2023/07/01 02:23:34;;;;;;;4.00;0.73;;;;;;;12.74;94.61;99588.38;5039175;28;20075;-61
2023/07/01 02:26:06;;;;;;;1.70;0.93;;;;;;;12.73;94.55;99633.84;5027949;28;20063;-61
2023/07/01 02:28:39;;;;;;;2.40;0.70;;;;;;;12.74;95.83;99617.19;5028510;28;20052;-59
2023/07/01 02:31:09;;;;;;;4.93;0.90;;;;;;;12.78;95.47;99621.44;5038014;28;20435;-61
2023/07/01 02:33:40;;;;;;;1.63;0.80;;;;;;;12.98;95.86;99632.94;5027992;28;20052;-60
2023/07/01 02:36:11;;;;;;;1.55;0.75;;;;;;;13.20;94.41;99631.25;5038260;28;20149;-63
2023/07/01 02:38:41;;;;;;;5.82;0.80;;;;;;;13.55;92.13;99634.34;5028923;28;20158;-59
2023/07/01 02:41:12;;;;;;;2.05;0.75;;;;;;;13.72;90.73;99621.41;5037873;28;20067;-61
2023/07/01 02:43:45;;;;;;;4.35;0.95;;;;;;;13.65;92.51;99614.69;5028144;28;20060;-61
2023/07/01 02:46:15;;;;;;;4.10;0.80;;;;;;;13.67;92.14;99620.75;5041338;28;20052;-62
2023/07/01 02:48:46;;;;;;;2.70;0.75;;;;;;;13.67;88.97;99620.75;5031520;28;20176;-59
2023/07/01 02:51:18;;;;;;;0.93;0.82;;;;;;;13.72;92.02;99621.41;5041805;28;20101;-64
2023/07/01 02:53:48;;;;;;;2.35;0.90;;;;;;;13.76;87.50;99630.03;5032229;28;20049;-59
2023/07/01 02:56:19;;;;;;;2.35;0.70;;;;;;;13.92;90.06;99627.66;5041889;28;20040;-63
2023/07/01 02:58:51;;;;;;;1.20;0.80;;;;;;;14.27;90.06;99617.47;5031528;28;20075;-60
2023/07/01 03:01:26;;;;;;;1.85;1.10;;;;;;;14.04;89.32;99585.13;5040018;28;20303;-58
2023/07/01 03:03:58;;;;;;;5.77;1.10;;;;;;;14.17;88.51;99607.31;5029461;28;20072;-60
2023/07/01 03:06:49;;;;;;;5.23;1.23;;;;;;;13.99;88.66;99598.44;5029857;28;20699;-63
2023/07/01 03:09:19;;;;;;;3.50;1.13;;;;;;;14.05;90.28;99602.59;5040686;28;20340;-60
2023/07/01 03:11:51;;;;;;;1.97;1.30;;;;;;;14.03;90.56;99605.28;5030409;28;20290;-60
2023/07/01 03:14:24;;;;;;;1.87;1.10;;;;;;;14.05;90.94;99589.44;5041664;28;20844;-60
2023/07/01 03:16:54;;;;;;;3.80;1.47;;;;;;;14.10;91.34;99600.63;5029725;28;20295;-60
2023/07/01 03:19:25;;;;;;;3.47;1.20;;;;;;;14.23;92.55;99554.53;5040991;28;20294;-60
2023/07/01 03:21:56;;;;;;;4.87;1.60;;;;;;;14.34;89.59;99597.91;5029940;28;20284;-59
2023/07/01 03:24:33;;;;;;;4.20;1.20;;;;;;;14.52;89.31;99597.09;5041165;28;20271;-63
2023/07/01 03:27:06;;;;;;;4.43;1.60;;;;;;;14.28;88.11;99590.25;5030063;28;20294;-59
2023/07/01 03:29:39;;;;;;;9.50;1.97;;;;;;;14.37;90.96;99587.25;5036064;28;20051;-60
2023/07/01 03:32:10;;;;;;;3.57;1.60;;;;;;;14.65;88.56;99593.06;5042047;28;20522;-59
2023/07/01 03:34:53;;;;;;;2.10;1.23;;;;;;;14.75;87.98;99561.97;5031006;28;20775;-62
2023/07/01 03:37:39;;;;;;;5.27;1.40;;;;;;;15.10;84.66;99589.31;5041070;28;20287;-60
2023/07/01 03:40:19;;;;;;;5.57;1.37;;;;;;;15.09;85.62;99592.84;5030949;28;20295;-62
2023/07/01 03:43:04;;;;;;;5.83;1.30;;;;;;;14.97;84.98;99593.38;5030185;28;20292;-62
2023/07/01 03:45:47;;;;;;;2.47;1.47;;;;;;;14.78;84.29;99592.53;5037573;28;20377;-61
2023/07/01 03:48:29;;;;;;;5.10;1.63;;;;;;;14.99;86.10;99586.28;5040760;28;20283;-63
2023/07/01 03:51:11;;;;;;;3.93;1.50;;;;;;;14.92;83.48;99590.13;5023155;28;20332;-61
2023/07/01 03:53:52;;;;;;;4.47;1.50;;;;;;;14.59;83.47;99577.53;5030164;28;20283;-62
2023/07/01 03:56:35;;;;;;;7.23;1.83;;;;;;;14.58;86.38;99596.88;5040919;28;20302;-62
2023/07/01 03:59:25;;;;;;;7.17;1.20;;;;;;;14.64;83.21;99596.59;5040882;28;20291;-62
2023/07/01 04:02:10;;;;;;;4.37;1.20;;;;;;;14.64;84.40;99595.75;5030616;28;20293;-60
2023/07/01 04:04:55;;;;;;;4.03;1.40;;;;;;;14.82;84.74;99594.09;5029332;28;20455;-62
2023/07/01 04:07:35;;;;;;;6.60;1.30;;;;;;;15.09;84.22;99584.94;5040236;28;20287;-62
2023/07/01 04:10:22;;;;;;;5.23;1.23;;;;;;;15.22;81.73;99597.53;5022096;28;20292;-62
2023/07/01 04:13:13;;;;;;;7.30;1.47;;;;;;;15.40;84.18;99596.72;5021718;28;20280;-65
2023/07/01 04:16:00;;;;;;;4.97;1.50;;;;;;;15.36;82.06;99603.03;5030799;28;20385;-62
2023/07/01 04:18:45;;;;;;;8.10;1.20;;;;;;;15.24;80.94;99590.44;5038131;28;20792;-61
2023/07/01 04:21:28;;;;;;;10.50;1.73;;;;;;;15.25;83.71;99598.28;5040095;28;20283;-60
2023/07/01 04:24:15;;;;;;;2.20;1.03;;;;;;;15.12;81.47;99596.25;5031347;28;20287;-61
2023/07/01 04:26:55;;;;;;;2.17;1.00;;;;;;;14.89;82.56;99600.78;5030967;28;20283;-60
2023/07/01 04:29:36;;;;;;;7.47;1.20;;;;;;;14.94;81.91;99604.06;5039497;28;20287;-60
2023/07/01 04:32:17;;;;;;;3.67;1.30;;;;;;;14.87;81.61;99607.88;5029891;28;20378;-61
2023/07/01 04:35:07;;;;;;;6.17;1.60;;;;;;;14.84;82.20;99597.50;5028604;28;20637;-63
2023/07/01 04:37:51;;;;;;;8.10;1.27;;;;;;;14.84;80.34;99611.50;5028885;28;20310;-60
2023/07/01 04:40:33;;;;;;;;;;;;;;;14.95;83.27;99611.03;5039262;28;20302;-59
2023/07/01 04:43:09;;;;;;;4.87;1.30;;;;;;;14.93;80.60;99612.03;5028730;28;19924;-62
2023/07/01 04:45:44;;;;;;;6.53;1.50;;;;;;;14.77;80.37;99617.09;5028115;28;20307;-61
2023/07/01 04:48:20;;;;;;;2.47;1.47;;;;;;;14.78;81.53;99613.56;5039572;28;21152;-60
2023/07/01 04:50:54;;;;;;;4.80;1.33;;;;;;;14.76;78.95;99599.63;5029528;28;20815;-61
2023/07/01 04:53:32;;;;;;;4.77;1.50;;;;;;;14.61;80.27;99606.41;5039036;28;20326;-61
2023/07/01 04:56:04;;;;;;;7.87;1.50;;;;;;;14.80;79.86;99616.97;5029789;28;20772;-60
2023/07/01 04:58:36;;;;;;;4.90;1.50;;;;;;;14.93;79.44;99618.16;5039685;28;20294;-61
2023/07/01 05:01:09;;;;;;;7.27;1.50;;;;;;;14.94;78.13;99597.94;5016515;28;20294;-63
2023/07/01 05:03:41;;;;;;;4.97;1.50;;;;;;;14.92;79.38;99616.41;5020100;28;20689;-60
2023/07/01 05:06:19;;;;;;;6.57;1.53;;;;;;;14.81;78.43;99602.91;5029613;28;20488;-60
2023/07/01 05:08:50;;;;;;;4.07;1.73;;;;;;;14.90;78.88;99597.22;5020083;28;20323;-62
2023/07/01 05:11:27;;;;;;;5.50;1.63;;;;;;;14.91;78.26;99603.34;5029913;28;20350;-62
2023/07/01 05:14:02;;;;;;;3.80;1.17;;;;;;;15.03;78.08;99602.81;5029058;28;20902;-59
2023/07/01 05:16:34;;;;;;;7.10;1.70;;;;;;;15.01;75.88;99600.22;5038584;28;20503;-61
2023/07/01 05:19:06;;;;;;;5.47;1.13;;;;;;;14.84;75.73;99597.50;5021231;28;20295;-61
2023/07/01 05:21:51;;;;;;;3.97;1.20;;;;;;;14.78;76.95;99608.31;5027829;28;20329;-63
2023/07/01 05:24:25;;;;;;;3.10;1.10;;;;;;;14.57;76.44;99613.56;5038935;28;20911;-62
2023/07/01 05:26:57;;;;;;;8.50;1.50;;;;;;;14.31;77.17;99613.81;5028527;28;20280;-59
2023/07/01 05:29:30;;;;;;;6.00;1.30;;;;;;;14.07;77.16;99611.25;5039254;28;20636;-61
2023/07/01 05:32:16;;;;;;;5.33;1.20;;;;;;;13.88;79.35;99605.03;5028098;28;20640;-64
2023/07/01 05:34:47;;;;;;;1.93;1.00;;;;;;;13.67;78.67;99605.00;5028044;28;20964;-62
2023/07/01 05:37:20;;;;;;;3.57;1.30;;;;;;;13.54;80.85;99612.50;5038058;28;20291;-62
2023/07/01 05:39:50;;;;;;;4.57;1.20;;;;;;;13.36;81.03;99608.81;5027460;28;20352;-62
2023/07/01 05:42:22;;;;;;;4.13;1.30;;;;;;;13.35;82.20;99601.88;5038255;28;20286;-60
2023/07/01 05:44:53;;;;;;;3.03;1.17;;;;;;;13.24;81.10;99619.75;5027948;28;20283;-62
2023/07/01 05:47:24;;;;;;;5.20;1.33;;;;;;;13.31;81.72;99609.91;5038212;28;20386;-62
2023/07/01 05:49:54;;;;;;;4.37;1.20;;;;;;;13.24;82.26;99606.63;5027175;28;20290;-61
2023/07/01 05:52:27;;;;;;;3.77;1.30;;;;;;;13.22;81.94;99605.81;5038445;28;20310;-61
2023/07/01 05:54:58;;;;;;;5.75;1.30;;;;;;;13.09;83.35;99620.31;5027202;28;20297;-61
2023/07/01 05:57:29;;;;;;;1.83;1.07;;;;;;;12.94;82.77;99606.84;5038707;28;20052;-64
2023/07/01 06:00:02;;;;;;;2.92;1.40;;;;;;;12.73;83.27;99597.16;5027073;28;20287;-62
2023/07/01 06:02:34;;;;;;;5.63;1.73;;;;;;;12.86;84.28;99603.66;5038623;28;20056;-65
2023/07/01 06:05:06;;;;;;;4.60;1.92;;;;;;;12.93;83.68;99604.31;5028056;28;20075;-64
2023/07/01 06:07:39;;;;;;;10.50;1.67;;;;;;;13.04;83.76;99606.53;5028378;28;20395;-60
2023/07/01 06:10:11;;;;;;;5.28;1.67;;;;;;;12.91;82.61;99559.78;5037319;28;20127;-62
2023/07/01 06:12:43;;;;;;;3.55;1.38;;;;;;;13.10;82.45;99614.16;5024281;28;20048;-59
2023/07/01 06:15:14;;;;;;;4.35;1.60;;;;;;;12.54;83.36;99534.03;5037771;28;20102;-61
2023/07/01 06:17:45;;;;;;;2.58;1.30;;;;;;;12.84;84.19;99620.34;5028307;28;20479;-62
2023/07/01 06:20:18;;;;;;;10.75;2.13;;;;;;;12.84;84.69;99615.97;5037477;28;20051;-61
2023/07/01 06:22:51;;;;;;;5.43;1.58;;;;;;;12.76;85.05;99617.16;5026948;28;20087;-60
2023/07/01 06:25:22;;;;;;;6.10;1.70;;;;;;;12.78;86.24;99621.44;5037758;28;20416;-61
2023/07/01 06:27:53;;;;;;;7.18;1.40;;;;;;;12.67;84.63;99602.59;5027473;28;20045;-60
2023/07/01 06:30:25;;;;;;;4.15;1.70;;;;;;;12.52;85.72;99612.69;5036401;28;20059;-61
2023/07/01 06:32:55;;;;;;;8.75;1.60;;;;;;;12.39;87.24;99613.19;5027295;28;20054;-61
2023/07/01 06:35:26;;;;;;;4.68;1.50;;;;;;;12.42;87.10;99619.19;5037493;28;20093;-63
2023/07/01 06:37:59;;;;;;;5.45;2.17;;;;;;;12.48;87.71;99616.34;5026648;28;20049;-63
2023/07/01 06:40:29;;;;;;;5.47;1.58;;;;;;;12.48;86.34;99607.63;5035704;28;20060;-63
2023/07/01 06:43:00;;;;;;;6.80;1.75;;;;;;;12.54;87.36;99617.91;5026691;28;20072;-64
2023/07/01 06:45:31;;;;;;;2.03;1.30;;;;;;;12.57;86.30;99617.78;5037093;28;20067;-62
2023/07/01 06:48:03;;;;;;;9.25;2.00;;;;;;;12.61;86.58;99613.31;5027621;28;20075;-63
2023/07/01 06:50:36;;;;;;;4.90;1.77;;;;;;;12.73;86.33;99618.13;5038186;28;20048;-65
2023/07/01 06:53:08;;;;;;;3.60;1.63;;;;;;;12.98;86.52;99622.47;5027216;28;20348;-62
2023/07/01 06:55:40;;;;;;;5.05;1.70;;;;;;;13.01;84.51;99617.13;5027311;28;20131;-61
2023/07/01 06:58:11;;;;;;;4.75;1.92;;;;;;;13.11;84.98;99610.63;5037653;28;20476;-64
2023/07/01 07:00:45;;;;;;;2.92;1.48;;;;;;;13.09;84.67;99622.94;5026414;28;20071;-56
2023/07/01 07:03:20;;;;;;;4.45;1.80;;;;;;;13.03;84.29;99621.41;5037172;28;20052;-58
2023/07/01 07:05:54;;;;;;;5.30;1.67;;;;;;;12.97;83.68;99623.38;5025256;28;20048;-62
2023/07/01 07:08:28;;;;;;;2.97;1.30;;;;;;;12.92;83.17;99629.63;5037452;28;20132;-61
2023/07/01 07:11:00;;;;;;;3.15;1.65;;;;;;;12.58;84.19;99597.69;5025937;28;20052;-60
2023/07/01 07:13:33;;;;;;;9.60;1.92;;;;;;;12.71;85.26;99630.44;5036858;28;20051;-61
2023/07/01 07:16:07;;;;;;;9.13;1.90;;;;;;;12.76;86.40;99633.75;5022625;28;20068;-60
2023/07/01 07:18:40;;;;;;;8.85;1.38;;;;;;;12.78;85.14;99631.94;5014849;28;20044;-62
2023/07/01 07:21:15;;;;;;;8.27;1.70;;;;;;;12.51;84.00;99597.91;5037287;28;20068;-61
2023/07/01 07:23:48;;;;;;;2.15;1.48;;;;;;;12.61;84.43;99629.03;5027242;28;20056;-60
2023/07/01 07:26:20;;;;;;;3.05;1.60;;;;;;;12.63;85.41;99627.19;5036914;28;20475;-61
2023/07/01 07:28:51;;;;;;;7.60;1.65;;;;;;;12.51;84.87;99618.88;5026081;28;20049;-58
2023/07/01 07:31:23;;;;;;;3.45;1.80;;;;;;;12.44;84.96;99612.13;5039284;28;20135;-62
2023/07/01 07:33:54;;;;;;;10.90;1.60;;;;;;;12.52;86.19;99624.97;5028676;28;20548;-59
2023/07/01 07:36:27;;;;;;;9.35;2.88;;;;;;;12.47;85.94;99617.25;5040519;28;20063;-61
2023/07/01 07:39:00;;;;;;;4.03;1.90;;;;;;;12.42;87.10;99634.91;5029741;28;20084;-62
2023/07/01 07:41:32;;;;;;;4.25;1.95;;;;;;;12.26;86.54;99625.84;5016498;28;20587;-62
2023/07/01 07:44:04;;;;;;;4.35;1.60;;;;;;;12.22;87.80;99613.75;5025331;28;20060;-61
2023/07/01 07:46:37;;;;;;;3.42;2.10;;;;;;;12.22;87.91;99626.84;5035143;28;20055;-60
2023/07/01 07:49:10;;;;;;;2.67;1.55;;;;;;;12.32;87.52;99628.25;5040164;28;20044;-60
2023/07/01 07:51:42;;;;;;;3.63;2.13;;;;;;;12.40;87.00;99620.97;5029621;28;20044;-58
2023/07/01 07:54:15;;;;;;;5.22;1.77;;;;;;;12.34;87.62;99625.59;5040454;28;20048;-60
2023/07/01 07:56:47;;;;;;;4.45;1.88;;;;;;;12.30;88.03;99619.59;5029736;28;20060;-62
2023/07/01 07:59:18;;;;;;;4.50;1.80;;;;;;;12.19;88.25;99613.88;5039963;28;20052;-61
2023/07/01 08:01:50;;;;;;;4.85;1.98;;;;;;;12.29;89.49;99623.13;5029434;28;20067;-62
2023/07/01 08:04:22;;;;;;;12.05;2.58;;;;;;;12.24;88.16;99628.50;5024282;28;20103;-60
2023/07/01 08:06:54;;;;;;;2.70;1.60;;;;;;;12.09;87.37;99622.03;5026090;28;20056;-63
2023/07/01 08:09:28;;;;;;;10.93;2.38;;;;;;;11.95;89.55;99624.22;5040435;28;20059;-62
2023/07/01 08:11:59;;;;;;;3.40;1.70;;;;;;;12.03;90.25;99627.47;5029699;28;20063;-62
2023/07/01 08:14:31;;;;;;;7.63;2.78;;;;;;;12.03;89.99;99632.72;5039781;28;20052;-61
2023/07/01 08:17:02;;;;;;;3.53;2.10;;;;;;;11.84;90.03;99631.53;5029353;28;20053;-62
2023/07/01 08:19:33;;;;;;;5.32;3.00;;;;;;;11.59;90.42;99616.59;5040014;28;20040;-62
2023/07/01 08:22:04;;;;;;;6.55;2.72;;;;;;;11.45;91.93;99634.47;5028901;28;20072;-60
2023/07/01 08:24:36;;;;;;;2.60;2.10;;;;;;;11.43;91.96;99641.50;5040195;28;20082;-61
2023/07/01 08:27:11;;;;;;;24.58;12.23;;;;;;;11.33;92.78;99653.16;5029204;28;20060;-61
2023/07/01 08:29:41;;;;;;;10.55;4.38;;;;;;;11.38;94.00;99648.63;5029395;28;20060;-62
2023/07/01 08:32:13;;;;;;;11.00;4.72;;;;;;;11.38;94.42;99653.88;5039710;28;20544;-58
2023/07/01 08:34:44;;;;;;;28.15;15.15;;;;;;;11.32;94.53;99654.91;5027962;28;20064;-59
2023/07/01 08:37:16;;;;;;;8.68;4.13;;;;;;;11.35;94.50;99654.81;5039538;28;20771;-61
2023/07/01 08:39:49;;;;;;;9.90;4.03;;;;;;;11.38;95.81;99664.31;5028403;28;20059;-60
2023/07/01 08:42:24;;;;;;;7.85;2.83;;;;;;;11.25;95.80;99669.06;5038904;28;20445;-62
2023/07/01 08:44:57;;;;;;;4.72;2.45;;;;;;;11.11;96.38;99666.00;5029128;28;20093;-62
2023/07/01 08:47:34;;;;;;;5.93;2.88;;;;;;;11.04;97.88;99665.31;5015314;28;20057;-58
2023/07/01 08:50:09;;;;;;;10.45;2.70;;;;;;;10.93;98.02;99656.88;5026987;28;20048;-59
2023/07/01 08:52:46;;;;;;;5.53;2.60;;;;;;;10.93;99.01;99664.72;5028582;28;20083;-60
2023/07/01 08:55:19;;;;;;;37.30;17.48;;;;;;;10.85;99.47;99695.44;5038767;28;20274;-61
2023/07/01 08:57:51;;;;;;;50.60;29.05;;;;;;;10.90;99.95;99673.50;5027962;28;20052;-63
2023/07/01 09:00:23;;;;;;;38.50;27.40;;;;;;;10.88;100.00;99670.06;5036280;28;20127;-62
2023/07/01 09:02:55;;;;;;;42.25;27.63;;;;;;;10.95;100.00;99673.38;5029152;28;20056;-60
2023/07/01 09:05:26;;;;;;;36.05;24.45;;;;;;;10.98;99.65;99675.91;5039181;28;20048;-62
2023/07/01 09:07:58;;;;;;;41.13;27.02;;;;;;;10.60;99.68;99628.16;5027452;28;20050;-64
2023/07/01 09:10:31;;;;;;;67.30;41.35;;;;;;;10.79;100.00;99686.88;5039267;28;20070;-60
2023/07/01 09:13:12;;;;;;;13.65;8.57;;;;;;;10.88;100.00;99690.13;5028167;28;20702;-60
2023/07/01 09:15:49;;;;;;;21.77;11.23;;;;;;;10.83;100.00;99686.78;5028255;28;20141;-60
2023/07/01 09:18:25;;;;;;;30.75;20.20;;;;;;;10.71;100.00;99683.63;5039131;28;20110;-61
2023/07/01 09:20:57;;;;;;;20.20;8.13;;;;;;;10.53;100.00;99684.06;5029365;28;20050;-63
2023/07/01 09:23:31;;;;;;;9.52;3.08;;;;;;;10.35;100.00;99675.81;5038965;28;20133;-63
2023/07/01 09:26:19;;;;;;;6.80;2.85;;;;;;;10.31;100.00;99663.72;5027856;28;20419;-60
2023/07/01 09:28:51;;;;;;;15.82;5.35;;;;;;;10.38;100.00;99671.41;5028349;28;20080;-61
2023/07/01 09:31:23;;;;;;;6.18;2.83;;;;;;;10.44;100.00;99684.31;5038325;28;20080;-62
2023/07/01 09:34:02;;;;;;;6.85;3.13;;;;;;;10.38;100.00;99679.25;5027607;28;20056;-63
2023/07/01 09:36:34;;;;;;;7.97;3.60;;;;;;;10.39;100.00;99680.97;5039003;28;20060;-61
2023/07/01 09:39:06;;;;;;;8.85;3.15;;;;;;;10.41;100.00;99681.75;5024148;28;20172;-61
2023/07/01 09:41:39;;;;;;;6.95;3.25;;;;;;;10.27;100.00;99667.28;5029723;28;20475;-60
2023/07/01 09:44:18;;;;;;;7.07;3.00;;;;;;;10.36;100.00;99682.75;5037786;28;20052;-62
2023/07/01 09:46:50;;;;;;;7.88;2.97;;;;;;;10.33;100.00;99682.84;5027756;28;20060;-62
2023/07/01 09:49:22;;;;;;;9.95;3.38;;;;;;;10.27;100.00;99688.16;5036922;28;20478;-61
2023/07/01 09:51:54;;;;;;;9.95;2.63;;;;;;;10.27;100.00;99682.09;5026247;28;20044;-62
2023/07/01 09:54:27;;;;;;;9.02;3.45;;;;;;;10.27;100.00;99672.50;5037273;28;20741;-61
2023/07/01 09:57:01;;;;;;;9.35;2.88;;;;;;;10.32;100.00;99678.50;5027482;28;20044;-63
2023/07/01 09:59:33;;;;;;;9.40;3.03;;;;;;;10.33;100.00;99688.06;5038703;28;20455;-61
2023/07/01 10:02:05;;;;;;;6.80;2.80;;;;;;;10.25;100.00;99692.56;5027846;28;20052;-61
2023/07/01 10:04:38;;;;;;;6.25;2.97;;;;;;;10.26;100.00;99696.91;5028254;28;20508;-59
2023/07/01 10:07:10;;;;;;;6.15;2.90;;;;;;;10.20;100.00;99678.75;5038404;28;20044;-62
2023/07/01 10:09:46;;;;;;;8.85;2.72;;;;;;;9.66;100.00;99608.69;5027243;28;20068;-60
2023/07/01 10:12:21;;;;;;;8.10;3.42;;;;;;;10.17;100.00;99702.34;5038343;28;20048;-61
2023/07/01 10:14:55;;;;;;;10.20;3.65;;;;;;;10.24;100.00;99693.47;5027955;28;20399;-60
2023/07/01 10:17:46;;;;;;;3.90;2.35;;;;;;;10.20;100.00;99690.97;5037890;28;20056;-59
2023/07/01 10:20:31;;;;;;;10.40;3.58;;;;;;;10.01;100.00;99674.88;5037779;28;20059;-63
2023/07/01 10:23:05;;;;;;;12.05;3.17;;;;;;;10.07;100.00;99690.41;5027642;28;20059;-62
2023/07/01 10:25:38;;;;;;;8.73;3.30;;;;;;;9.98;100.00;99690.59;5036362;28;20060;-60
2023/07/01 10:28:12;;;;;;;9.52;3.00;;;;;;;9.91;100.00;99701.19;5037823;28;20249;-61
2023/07/01 10:31:12;;;;;;;7.35;3.00;;;;;;;9.92;100.00;99697.69;5027627;28;20111;-61
2023/07/01 10:33:59;;;;;;;6.95;3.50;;;;;;;9.92;100.00;99713.34;5027236;28;20049;-61
2023/07/01 10:36:32;;;;;;;8.70;3.20;;;;;;;9.82;100.00;99711.84;5038044;28;20048;-59
2023/07/01 10:39:34;;;;;;;8.13;2.95;;;;;;;9.83;100.00;99718.75;5027398;28;20048;-60
2023/07/01 10:42:30;;;;;;;8.70;3.50;;;;;;;9.81;100.00;99720.56;4931208;28;20481;-63
2023/07/01 10:45:36;;;;;;;10.68;2.75;;;;;;;9.75;100.00;99723.28;5027214;28;20076;-62
2023/07/01 10:48:19;;;;;;;7.80;3.15;;;;;;;9.78;100.00;99724.97;4980611;28;20538;-61
2023/07/01 10:51:07;;;;;;;7.13;3.00;;;;;;;9.78;100.00;99725.81;4991970;28;20141;-61
2023/07/01 10:54:02;;;;;;;9.95;3.08;;;;;;;9.87;100.00;99736.06;4990413;28;20045;-61
2023/07/01 10:56:36;;;;;;;4.80;2.70;;;;;;;9.85;100.00;99727.41;5000296;28;20049;-60
2023/07/01 10:59:25;;;;;;;5.80;2.97;;;;;;;9.80;100.00;99728.41;4984113;28;20045;-61
2023/07/01 11:02:00;;;;;;;;;;;;;;;9.93;100.00;99743.78;4987468;28;20361;-61
2023/07/01 11:05:03;;;;;;;11.50;3.13;;;;;;;10.06;100.00;99746.97;4992139;28;20044;-61
2023/07/01 11:07:41;;;;;;;8.82;2.65;;;;;;;9.44;100.00;99643.09;4995583;28;20107;-61
2023/07/01 11:10:13;;;;;;;9.43;3.00;;;;;;;9.96;100.00;99755.03;4973485;28;20062;-61
2023/07/01 11:12:55;;;;;;;6.75;2.70;;;;;;;9.96;100.00;99755.03;4974521;28;20161;-60
2023/07/01 11:16:07;;;;;;;7.28;2.72;;;;;;;9.90;100.00;99741.22;4970074;28;20195;-59
2023/07/01 11:18:51;;;;;;;5.25;2.80;;;;;;;10.00;100.00;99751.47;4970390;28;20064;-60
2023/07/01 11:21:24;;;;;;;5.07;3.20;;;;;;;9.98;100.00;99737.59;4932866;28;20050;-59
2023/07/01 11:24:00;;;;;;;7.95;2.80;;;;;;;10.04;100.00;99747.91;4969521;28;20473;-60
2023/07/01 11:26:33;;;;;;;15.32;3.30;;;;;;;10.09;100.00;99741.69;4978356;28;20167;-60
2023/07/01 11:29:04;;;;;;;5.85;2.97;;;;;;;9.98;100.00;99716.69;4969272;28;20057;-60
2023/07/01 11:31:37;;;;;;;8.88;3.10;;;;;;;10.22;100.00;99750.09;4980271;28;20141;-59
2023/07/01 11:34:34;;;;;;;8.40;2.70;;;;;;;10.06;100.00;99730.44;4979609;28;20053;-62
2023/07/01 11:37:06;;;;;;;7.10;2.95;;;;;;;10.20;100.00;99770.13;4969099;28;20073;-60
2023/07/01 11:42:36;;;;;;;4.85;3.10;;;;;;;10.22;100.00;99773.59;4979242;28;20168;-61
2023/07/01 11:45:08;;;;;;;6.45;2.70;;;;;;;10.14;100.00;99754.63;4970176;28;20694;-61
2023/07/01 11:47:47;;;;;;;5.10;2.75;;;;;;;10.15;100.00;99772.00;4971102;28;20091;-59
2023/07/01 11:50:18;;;;;;;9.40;2.95;;;;;;;10.09;100.00;99766.94;4980256;28;20734;-61
2023/07/01 11:53:10;;;;;;;7.38;2.83;;;;;;;10.13;100.00;99768.56;4980662;28;20096;-60
2023/07/01 11:55:58;;;;;;;7.07;2.92;;;;;;;10.11;100.00;99754.72;5011947;28;20056;-60
2023/07/01 11:58:39;;;;;;;5.93;3.03;;;;;;;10.14;100.00;99770.28;5019325;28;20111;-60
2023/07/01 12:01:29;;;;;;;6.18;2.75;;;;;;;10.03;100.00;99756.59;5022109;28;20064;-59
2023/07/01 12:04:03;;;;;;;6.13;2.80;;;;;;;10.07;100.00;99758.25;5011721;28;20104;-60
2023/07/01 12:06:52;;;;;;;5.60;2.67;;;;;;;9.98;100.00;99763.69;5021741;28;20858;-60
2023/07/01 12:09:35;;;;;;;6.97;2.97;;;;;;;9.85;100.00;99747.44;5021451;28;20562;-58
2023/07/01 12:12:36;;;;;;;7.55;2.95;;;;;;;9.94;100.00;99774.19;5010420;28;20049;-59